sensor_id;sensor_type;location;lat;lon;timestamp;temperature;humidity
56512;DHT22;42408;53.238;5.686;2024-01-30T00:02:16;5.90;99.90
56512;DHT22;42408;53.238;5.686;2024-01-30T00:04:42;5.90;99.90
56512;DHT22;42408;53.238;5.686;2024-01-30T00:07:08;5.90;99.90
56512;DHT22;42408;53.238;5.686;2024-01-30T00:09:33;5.90;99.90
56512;DHT22;42408;53.238;5.686;2024-01-30T00:11:59;6.80;99.90
56512;DHT22;42408;53.238;5.686;2024-01-30T00:14:25;5.90;99.90
56512;DHT22;42408;53.238;5.686;2024-01-30T00:16:51;5.90;99.90
56512;DHT22;42408;53.238;5.686;2024-01-30T00:19:17;6.00;99.90
56512;DHT22;42408;53.238;5.686;2024-01-30T00:21:43;5.90;99.90
56512;DHT22;42408;53.238;5.686;2024-01-30T00:24:08;5.90;99.90
56512;DHT22;42408;53.238;5.686;2024-01-30T00:26:34;5.90;99.90
56512;DHT22;42408;53.238;5.686;2024-01-30T00:29:00;5.90;99.90
56512;DHT22;42408;53.238;5.686;2024-01-30T00:31:26;5.90;99.90
56512;DHT22;42408;53.238;5.686;2024-01-30T00:33:51;5.80;99.90
56512;DHT22;42408;53.238;5.686;2024-01-30T00:36:17;5.80;99.90
56512;DHT22;42408;53.238;5.686;2024-01-30T00:38:43;5.80;99.90
56512;DHT22;42408;53.238;5.686;2024-01-30T00:41:09;5.80;99.90
56512;DHT22;42408;53.238;5.686;2024-01-30T00:43:35;5.80;99.90
56512;DHT22;42408;53.238;5.686;2024-01-30T00:46:01;5.80;99.90
56512;DHT22;42408;53.238;5.686;2024-01-30T00:48:27;5.80;99.90
56512;DHT22;42408;53.238;5.686;2024-01-30T00:50:52;5.70;99.90
56512;DHT22;42408;53.238;5.686;2024-01-30T00:53:18;5.70;99.90
56512;DHT22;42408;53.238;5.686;2024-01-30T00:55:43;5.70;99.90
56512;DHT22;42408;53.238;5.686;2024-01-30T00:58:09;5.70;99.90
56512;DHT22;42408;53.238;5.686;2024-01-30T01:00:35;5.70;99.90
56512;DHT22;42408;53.238;5.686;2024-01-30T01:03:01;5.70;99.90
56512;DHT22;42408;53.238;5.686;2024-01-30T01:05:26;5.60;99.90
56512;DHT22;42408;53.238;5.686;2024-01-30T01:07:52;5.70;99.90
56512;DHT22;42408;53.238;5.686;2024-01-30T01:10:18;5.60;99.90
56512;DHT22;42408;53.238;5.686;2024-01-30T01:12:45;5.60;99.90
56512;DHT22;42408;53.238;5.686;2024-01-30T01:15:11;5.60;99.90
56512;DHT22;42408;53.238;5.686;2024-01-30T01:17:37;5.60;99.90
56512;DHT22;42408;53.238;5.686;2024-01-30T01:20:04;5.60;99.90
56512;DHT22;42408;53.238;5.686;2024-01-30T01:22:31;5.60;99.90
56512;DHT22;42408;53.238;5.686;2024-01-30T01:24:57;5.60;99.90
56512;DHT22;42408;53.238;5.686;2024-01-30T01:27:23;5.50;99.90
56512;DHT22;42408;53.238;5.686;2024-01-30T01:29:49;5.50;99.90
56512;DHT22;42408;53.238;5.686;2024-01-30T01:32:14;5.50;99.90
56512;DHT22;42408;53.238;5.686;2024-01-30T01:34:40;5.50;99.90
56512;DHT22;42408;53.238;5.686;2024-01-30T01:37:06;5.50;99.90
56512;DHT22;42408;53.238;5.686;2024-01-30T01:39:32;5.60;99.90
56512;DHT22;42408;53.238;5.686;2024-01-30T01:41:58;5.60;99.90
56512;DHT22;42408;53.238;5.686;2024-01-30T01:44:24;5.70;99.90
56512;DHT22;42408;53.238;5.686;2024-01-30T01:46:51;5.70;99.90
56512;DHT22;42408;53.238;5.686;2024-01-30T01:49:17;5.70;99.90
56512;DHT22;42408;53.238;5.686;2024-01-30T01:51:45;6.20;99.90
56512;DHT22;42408;53.238;5.686;2024-01-30T01:54:14;5.80;99.90
56512;DHT22;42408;53.238;5.686;2024-01-30T01:56:42;5.80;99.90
56512;DHT22;42408;53.238;5.686;2024-01-30T01:59:09;5.80;99.90
56512;DHT22;42408;53.238;5.686;2024-01-30T02:01:36;5.80;99.90
56512;DHT22;42408;53.238;5.686;2024-01-30T02:04:02;5.90;99.90
56512;DHT22;42408;53.238;5.686;2024-01-30T02:06:28;6.00;99.90
56512;DHT22;42408;53.238;5.686;2024-01-30T02:08:54;6.10;99.90
56512;DHT22;42408;53.238;5.686;2024-01-30T02:11:21;6.00;99.90
56512;DHT22;42408;53.238;5.686;2024-01-30T02:13:47;6.00;99.90
56512;DHT22;42408;53.238;5.686;2024-01-30T02:16:13;6.10;99.90
56512;DHT22;42408;53.238;5.686;2024-01-30T02:18:39;6.00;99.90
56512;DHT22;42408;53.238;5.686;2024-01-30T02:21:08;6.10;99.90
56512;DHT22;42408;53.238;5.686;2024-01-30T02:23:34;6.10;99.90
56512;DHT22;42408;53.238;5.686;2024-01-30T02:26:00;6.20;99.90
56512;DHT22;42408;53.238;5.686;2024-01-30T02:28:26;6.10;99.90
56512;DHT22;42408;53.238;5.686;2024-01-30T02:30:53;6.10;99.90
56512;DHT22;42408;53.238;5.686;2024-01-30T02:33:18;6.10;99.90
56512;DHT22;42408;53.238;5.686;2024-01-30T02:35:44;6.10;99.90
56512;DHT22;42408;53.238;5.686;2024-01-30T02:38:10;6.10;99.90
56512;DHT22;42408;53.238;5.686;2024-01-30T02:40:36;6.10;99.90
56512;DHT22;42408;53.238;5.686;2024-01-30T02:43:02;6.10;99.90
56512;DHT22;42408;53.238;5.686;2024-01-30T02:45:28;6.10;99.90
56512;DHT22;42408;53.238;5.686;2024-01-30T02:47:53;6.10;99.90
56512;DHT22;42408;53.238;5.686;2024-01-30T02:50:19;6.10;99.90
56512;DHT22;42408;53.238;5.686;2024-01-30T02:52:45;6.20;99.90
56512;DHT22;42408;53.238;5.686;2024-01-30T02:55:11;6.20;99.90
56512;DHT22;42408;53.238;5.686;2024-01-30T02:57:37;6.20;99.90
56512;DHT22;42408;53.238;5.686;2024-01-30T03:00:03;6.20;99.90
56512;DHT22;42408;53.238;5.686;2024-01-30T03:02:34;6.20;99.90
56512;DHT22;42408;53.238;5.686;2024-01-30T03:04:59;6.30;99.90
56512;DHT22;42408;53.238;5.686;2024-01-30T03:07:25;6.20;99.90
56512;DHT22;42408;53.238;5.686;2024-01-30T03:09:51;6.20;99.90
56512;DHT22;42408;53.238;5.686;2024-01-30T03:12:17;6.20;99.90
56512;DHT22;42408;53.238;5.686;2024-01-30T03:14:42;6.20;99.90
56512;DHT22;42408;53.238;5.686;2024-01-30T03:17:08;6.10;99.90
56512;DHT22;42408;53.238;5.686;2024-01-30T03:19:34;6.20;99.90
56512;DHT22;42408;53.238;5.686;2024-01-30T03:21:59;6.10;99.90
56512;DHT22;42408;53.238;5.686;2024-01-30T03:24:25;6.20;99.90
56512;DHT22;42408;53.238;5.686;2024-01-30T03:26:51;6.10;99.90
56512;DHT22;42408;53.238;5.686;2024-01-30T03:29:16;6.10;99.90
56512;DHT22;42408;53.238;5.686;2024-01-30T03:31:42;6.10;99.90
56512;DHT22;42408;53.238;5.686;2024-01-30T03:34:08;6.10;99.90
56512;DHT22;42408;53.238;5.686;2024-01-30T03:36:33;6.10;99.90
56512;DHT22;42408;53.238;5.686;2024-01-30T03:39:00;6.10;99.90
56512;DHT22;42408;53.238;5.686;2024-01-30T03:41:26;6.20;99.90
56512;DHT22;42408;53.238;5.686;2024-01-30T03:43:51;6.20;99.90
56512;DHT22;42408;53.238;5.686;2024-01-30T03:46:17;6.20;99.90
56512;DHT22;42408;53.238;5.686;2024-01-30T03:48:43;6.30;99.90
56512;DHT22;42408;53.238;5.686;2024-01-30T03:51:08;6.20;99.90
56512;DHT22;42408;53.238;5.686;2024-01-30T03:53:34;6.20;99.90
56512;DHT22;42408;53.238;5.686;2024-01-30T03:56:00;6.20;99.90
56512;DHT22;42408;53.238;5.686;2024-01-30T03:58:26;6.30;99.90
56512;DHT22;42408;53.238;5.686;2024-01-30T04:00:52;6.30;99.90
56512;DHT22;42408;53.238;5.686;2024-01-30T04:03:17;6.30;99.90
56512;DHT22;42408;53.238;5.686;2024-01-30T04:05:43;6.30;99.90
56512;DHT22;42408;53.238;5.686;2024-01-30T04:08:09;7.10;99.90
56512;DHT22;42408;53.238;5.686;2024-01-30T04:10:35;6.40;99.90
56512;DHT22;42408;53.238;5.686;2024-01-30T04:13:01;6.40;99.90
56512;DHT22;42408;53.238;5.686;2024-01-30T04:15:27;6.40;99.90
56512;DHT22;42408;53.238;5.686;2024-01-30T04:17:53;6.40;99.90
56512;DHT22;42408;53.238;5.686;2024-01-30T04:20:19;6.50;99.90
56512;DHT22;42408;53.238;5.686;2024-01-30T04:22:45;6.40;99.90
56512;DHT22;42408;53.238;5.686;2024-01-30T04:25:12;6.40;99.90
56512;DHT22;42408;53.238;5.686;2024-01-30T04:27:38;6.50;99.90
56512;DHT22;42408;53.238;5.686;2024-01-30T04:30:04;6.60;99.90
56512;DHT22;42408;53.238;5.686;2024-01-30T04:32:29;6.50;99.90
56512;DHT22;42408;53.238;5.686;2024-01-30T04:34:55;6.50;99.90
56512;DHT22;42408;53.238;5.686;2024-01-30T04:37:21;6.60;99.90
56512;DHT22;42408;53.238;5.686;2024-01-30T04:39:47;6.60;99.90
56512;DHT22;42408;53.238;5.686;2024-01-30T04:42:13;6.60;99.90
56512;DHT22;42408;53.238;5.686;2024-01-30T04:44:38;6.60;99.90
56512;DHT22;42408;53.238;5.686;2024-01-30T04:47:04;6.60;99.90
56512;DHT22;42408;53.238;5.686;2024-01-30T04:49:31;6.60;99.90
56512;DHT22;42408;53.238;5.686;2024-01-30T04:51:57;6.60;99.90
56512;DHT22;42408;53.238;5.686;2024-01-30T04:54:24;6.60;99.90
56512;DHT22;42408;53.238;5.686;2024-01-30T04:56:49;6.60;99.90
56512;DHT22;42408;53.238;5.686;2024-01-30T04:59:15;6.60;99.90
56512;DHT22;42408;53.238;5.686;2024-01-30T05:01:40;6.60;99.90
56512;DHT22;42408;53.238;5.686;2024-01-30T05:04:09;6.60;99.90
56512;DHT22;42408;53.238;5.686;2024-01-30T05:06:35;6.60;99.90
56512;DHT22;42408;53.238;5.686;2024-01-30T05:09:01;6.60;99.90
56512;DHT22;42408;53.238;5.686;2024-01-30T05:11:26;6.60;99.90
56512;DHT22;42408;53.238;5.686;2024-01-30T05:13:52;6.60;99.90
56512;DHT22;42408;53.238;5.686;2024-01-30T05:16:18;6.50;99.90
56512;DHT22;42408;53.238;5.686;2024-01-30T05:18:43;6.60;99.90
56512;DHT22;42408;53.238;5.686;2024-01-30T05:21:10;6.60;99.90
56512;DHT22;42408;53.238;5.686;2024-01-30T05:23:36;6.60;99.90
56512;DHT22;42408;53.238;5.686;2024-01-30T05:26:02;6.60;99.90
56512;DHT22;42408;53.238;5.686;2024-01-30T05:28:29;6.60;99.90
56512;DHT22;42408;53.238;5.686;2024-01-30T05:30:55;6.70;99.90
56512;DHT22;42408;53.238;5.686;2024-01-30T05:33:21;6.60;99.90
56512;DHT22;42408;53.238;5.686;2024-01-30T05:35:47;6.70;99.90
56512;DHT22;42408;53.238;5.686;2024-01-30T05:38:15;6.70;99.90
56512;DHT22;42408;53.238;5.686;2024-01-30T05:40:40;6.70;99.90
56512;DHT22;42408;53.238;5.686;2024-01-30T05:43:06;6.70;99.90
56512;DHT22;42408;53.238;5.686;2024-01-30T05:45:33;6.80;99.90
56512;DHT22;42408;53.238;5.686;2024-01-30T05:48:00;6.80;99.90
56512;DHT22;42408;53.238;5.686;2024-01-30T05:50:26;6.80;99.90
56512;DHT22;42408;53.238;5.686;2024-01-30T05:52:52;6.80;99.90
56512;DHT22;42408;53.238;5.686;2024-01-30T05:55:18;6.80;99.90
56512;DHT22;42408;53.238;5.686;2024-01-30T05:57:44;6.80;99.90
56512;DHT22;42408;53.238;5.686;2024-01-30T06:00:10;6.90;99.90
56512;DHT22;42408;53.238;5.686;2024-01-30T06:02:36;6.90;99.90
56512;DHT22;42408;53.238;5.686;2024-01-30T06:05:01;6.90;99.90
56512;DHT22;42408;53.238;5.686;2024-01-30T06:07:27;6.90;99.90
56512;DHT22;42408;53.238;5.686;2024-01-30T06:09:53;6.90;99.90
56512;DHT22;42408;53.238;5.686;2024-01-30T06:12:18;6.90;99.90
56512;DHT22;42408;53.238;5.686;2024-01-30T06:14:44;7.00;99.90
56512;DHT22;42408;53.238;5.686;2024-01-30T06:17:10;7.00;99.90
56512;DHT22;42408;53.238;5.686;2024-01-30T06:19:37;7.00;99.90
56512;DHT22;42408;53.238;5.686;2024-01-30T06:22:04;7.00;99.90
56512;DHT22;42408;53.238;5.686;2024-01-30T06:24:29;7.10;99.90
56512;DHT22;42408;53.238;5.686;2024-01-30T06:26:55;7.00;99.90
56512;DHT22;42408;53.238;5.686;2024-01-30T06:29:21;7.10;99.90
56512;DHT22;42408;53.238;5.686;2024-01-30T06:31:47;7.10;99.90
56512;DHT22;42408;53.238;5.686;2024-01-30T06:34:12;7.20;99.90
56512;DHT22;42408;53.238;5.686;2024-01-30T06:36:38;7.20;99.90
56512;DHT22;42408;53.238;5.686;2024-01-30T06:39:04;7.30;99.90
56512;DHT22;42408;53.238;5.686;2024-01-30T06:41:30;7.30;99.90
56512;DHT22;42408;53.238;5.686;2024-01-30T06:43:56;7.30;99.90
56512;DHT22;42408;53.238;5.686;2024-01-30T06:46:22;7.40;99.90
56512;DHT22;42408;53.238;5.686;2024-01-30T06:48:48;7.40;99.90
56512;DHT22;42408;53.238;5.686;2024-01-30T06:51:13;7.50;99.90
56512;DHT22;42408;53.238;5.686;2024-01-30T06:53:39;7.60;99.90
56512;DHT22;42408;53.238;5.686;2024-01-30T06:56:05;7.60;99.90
56512;DHT22;42408;53.238;5.686;2024-01-30T06:58:31;7.70;99.90
56512;DHT22;42408;53.238;5.686;2024-01-30T07:00:58;7.70;99.90
56512;DHT22;42408;53.238;5.686;2024-01-30T07:03:23;7.80;99.90
56512;DHT22;42408;53.238;5.686;2024-01-30T07:05:49;7.80;99.90
56512;DHT22;42408;53.238;5.686;2024-01-30T07:08:16;7.90;99.90
56512;DHT22;42408;53.238;5.686;2024-01-30T07:10:44;7.90;99.90
56512;DHT22;42408;53.238;5.686;2024-01-30T07:13:13;7.90;99.90
56512;DHT22;42408;53.238;5.686;2024-01-30T07:15:38;8.00;99.90
56512;DHT22;42408;53.238;5.686;2024-01-30T07:18:05;8.10;99.90
56512;DHT22;42408;53.238;5.686;2024-01-30T07:20:31;8.10;99.90
56512;DHT22;42408;53.238;5.686;2024-01-30T07:23:00;8.00;99.90
56512;DHT22;42408;53.238;5.686;2024-01-30T07:25:25;8.10;99.90
56512;DHT22;42408;53.238;5.686;2024-01-30T07:27:56;8.20;99.90
56512;DHT22;42408;53.238;5.686;2024-01-30T07:30:22;8.20;99.90
56512;DHT22;42408;53.238;5.686;2024-01-30T07:32:48;8.30;99.90
56512;DHT22;42408;53.238;5.686;2024-01-30T07:35:14;8.30;99.90
56512;DHT22;42408;53.238;5.686;2024-01-30T07:37:40;8.30;99.90
56512;DHT22;42408;53.238;5.686;2024-01-30T07:40:06;8.30;99.90
56512;DHT22;42408;53.238;5.686;2024-01-30T07:42:33;8.40;99.90
56512;DHT22;42408;53.238;5.686;2024-01-30T07:44:59;8.40;99.90
56512;DHT22;42408;53.238;5.686;2024-01-30T07:47:25;8.40;99.90
56512;DHT22;42408;53.238;5.686;2024-01-30T07:49:51;8.40;99.90
56512;DHT22;42408;53.238;5.686;2024-01-30T07:52:17;8.40;99.90
56512;DHT22;42408;53.238;5.686;2024-01-30T07:54:51;8.40;99.90
56512;DHT22;42408;53.238;5.686;2024-01-30T07:57:17;8.40;99.90
56512;DHT22;42408;53.238;5.686;2024-01-30T07:59:44;8.40;99.90
56512;DHT22;42408;53.238;5.686;2024-01-30T08:02:12;8.50;99.90
56512;DHT22;42408;53.238;5.686;2024-01-30T08:04:37;8.40;99.90
56512;DHT22;42408;53.238;5.686;2024-01-30T08:07:03;8.50;99.90
56512;DHT22;42408;53.238;5.686;2024-01-30T08:09:29;8.60;99.90
56512;DHT22;42408;53.238;5.686;2024-01-30T08:11:54;8.60;99.90
56512;DHT22;42408;53.238;5.686;2024-01-30T08:14:20;8.60;99.90
56512;DHT22;42408;53.238;5.686;2024-01-30T08:16:46;8.60;99.90
56512;DHT22;42408;53.238;5.686;2024-01-30T08:19:12;8.60;99.90
56512;DHT22;42408;53.238;5.686;2024-01-30T08:21:38;8.60;99.90
56512;DHT22;42408;53.238;5.686;2024-01-30T08:24:04;8.70;99.90
56512;DHT22;42408;53.238;5.686;2024-01-30T08:28:56;8.70;99.90
56512;DHT22;42408;53.238;5.686;2024-01-30T08:31:22;8.70;99.90
56512;DHT22;42408;53.238;5.686;2024-01-30T08:33:48;8.80;99.90
56512;DHT22;42408;53.238;5.686;2024-01-30T08:36:16;8.70;99.90
56512;DHT22;42408;53.238;5.686;2024-01-30T08:38:42;8.80;99.90
56512;DHT22;42408;53.238;5.686;2024-01-30T08:41:08;8.70;99.90
56512;DHT22;42408;53.238;5.686;2024-01-30T08:43:33;8.80;99.90
56512;DHT22;42408;53.238;5.686;2024-01-30T08:46:02;8.80;99.90
56512;DHT22;42408;53.238;5.686;2024-01-30T08:48:28;8.80;99.90
56512;DHT22;42408;53.238;5.686;2024-01-30T08:50:54;8.80;99.90
56512;DHT22;42408;53.238;5.686;2024-01-30T08:53:20;8.80;99.90
56512;DHT22;42408;53.238;5.686;2024-01-30T08:55:45;8.80;99.90
56512;DHT22;42408;53.238;5.686;2024-01-30T08:58:11;8.80;99.90
56512;DHT22;42408;53.238;5.686;2024-01-30T09:00:37;8.90;99.90
56512;DHT22;42408;53.238;5.686;2024-01-30T09:03:05;8.90;99.90
56512;DHT22;42408;53.238;5.686;2024-01-30T09:05:31;8.90;99.90
56512;DHT22;42408;53.238;5.686;2024-01-30T09:07:56;9.00;99.90
56512;DHT22;42408;53.238;5.686;2024-01-30T09:10:22;9.10;99.90
56512;DHT22;42408;53.238;5.686;2024-01-30T09:12:48;9.00;99.90
56512;DHT22;42408;53.238;5.686;2024-01-30T09:15:15;9.10;99.90
56512;DHT22;42408;53.238;5.686;2024-01-30T09:17:40;9.20;99.90
56512;DHT22;42408;53.238;5.686;2024-01-30T09:20:06;9.20;99.90
56512;DHT22;42408;53.238;5.686;2024-01-30T09:22:32;9.10;99.90
56512;DHT22;42408;53.238;5.686;2024-01-30T09:24:58;9.10;99.90
56512;DHT22;42408;53.238;5.686;2024-01-30T09:27:24;9.20;99.90
56512;DHT22;42408;53.238;5.686;2024-01-30T09:29:49;9.10;99.90
56512;DHT22;42408;53.238;5.686;2024-01-30T09:32:15;9.30;99.90
56512;DHT22;42408;53.238;5.686;2024-01-30T09:34:41;9.30;99.90
56512;DHT22;42408;53.238;5.686;2024-01-30T09:37:08;9.40;99.90
56512;DHT22;42408;53.238;5.686;2024-01-30T09:39:33;9.40;99.90
56512;DHT22;42408;53.238;5.686;2024-01-30T09:44:51;9.50;99.90
56512;DHT22;42408;53.238;5.686;2024-01-30T09:47:18;9.50;99.90
56512;DHT22;42408;53.238;5.686;2024-01-30T09:49:44;9.50;99.90
56512;DHT22;42408;53.238;5.686;2024-01-30T09:52:10;9.50;99.90
56512;DHT22;42408;53.238;5.686;2024-01-30T09:54:36;9.60;99.90
56512;DHT22;42408;53.238;5.686;2024-01-30T09:57:03;9.60;99.90
56512;DHT22;42408;53.238;5.686;2024-01-30T09:59:29;9.60;99.90
56512;DHT22;42408;53.238;5.686;2024-01-30T10:01:55;9.60;99.90
56512;DHT22;42408;53.238;5.686;2024-01-30T10:04:22;9.70;99.90
56512;DHT22;42408;53.238;5.686;2024-01-30T10:06:47;9.60;99.90
56512;DHT22;42408;53.238;5.686;2024-01-30T10:09:13;9.60;99.90
56512;DHT22;42408;53.238;5.686;2024-01-30T10:11:39;9.60;99.90
56512;DHT22;42408;53.238;5.686;2024-01-30T10:14:05;9.60;99.90
56512;DHT22;42408;53.238;5.686;2024-01-30T10:16:30;9.50;99.90
56512;DHT22;42408;53.238;5.686;2024-01-30T10:18:56;9.80;99.90
56512;DHT22;42408;53.238;5.686;2024-01-30T10:21:22;9.50;99.90
56512;DHT22;42408;53.238;5.686;2024-01-30T10:23:47;9.50;99.90
56512;DHT22;42408;53.238;5.686;2024-01-30T10:26:15;9.50;99.90
56512;DHT22;42408;53.238;5.686;2024-01-30T10:28:41;9.40;99.90
56512;DHT22;42408;53.238;5.686;2024-01-30T10:31:07;9.50;99.90
56512;DHT22;42408;53.238;5.686;2024-01-30T10:33:33;9.50;99.90
56512;DHT22;42408;53.238;5.686;2024-01-30T10:36:04;9.50;99.90
56512;DHT22;42408;53.238;5.686;2024-01-30T10:38:31;9.50;99.90
56512;DHT22;42408;53.238;5.686;2024-01-30T10:40:57;9.50;99.90
56512;DHT22;42408;53.238;5.686;2024-01-30T10:43:29;9.50;99.90
56512;DHT22;42408;53.238;5.686;2024-01-30T10:45:57;9.50;99.90
56512;DHT22;42408;53.238;5.686;2024-01-30T10:48:30;9.40;99.90
56512;DHT22;42408;53.238;5.686;2024-01-30T10:50:57;9.40;99.90
56512;DHT22;42408;53.238;5.686;2024-01-30T10:53:25;9.40;99.90
56512;DHT22;42408;53.238;5.686;2024-01-30T10:55:51;9.50;99.90
56512;DHT22;42408;53.238;5.686;2024-01-30T10:58:18;9.60;99.90
56512;DHT22;42408;53.238;5.686;2024-01-30T11:00:44;9.50;99.90
56512;DHT22;42408;53.238;5.686;2024-01-30T11:03:11;9.40;99.90
56512;DHT22;42408;53.238;5.686;2024-01-30T11:05:40;9.40;99.90
56512;DHT22;42408;53.238;5.686;2024-01-30T11:08:13;9.40;99.90
56512;DHT22;42408;53.238;5.686;2024-01-30T11:10:48;9.40;99.90
56512;DHT22;42408;53.238;5.686;2024-01-30T11:13:15;9.50;99.90
56512;DHT22;42408;53.238;5.686;2024-01-30T11:15:40;9.50;99.90
56512;DHT22;42408;53.238;5.686;2024-01-30T11:18:06;9.50;99.90
56512;DHT22;42408;53.238;5.686;2024-01-30T11:20:32;9.50;99.90
56512;DHT22;42408;53.238;5.686;2024-01-30T11:22:58;9.50;99.90
56512;DHT22;42408;53.238;5.686;2024-01-30T11:25:25;9.50;99.90
56512;DHT22;42408;53.238;5.686;2024-01-30T11:27:53;9.50;99.90
56512;DHT22;42408;53.238;5.686;2024-01-30T11:30:30;9.50;99.90
56512;DHT22;42408;53.238;5.686;2024-01-30T11:35:37;9.40;99.90
56512;DHT22;42408;53.238;5.686;2024-01-30T11:38:03;9.40;99.90
56512;DHT22;42408;53.238;5.686;2024-01-30T11:40:29;9.30;99.90
56512;DHT22;42408;53.238;5.686;2024-01-30T11:42:56;9.20;99.90
56512;DHT22;42408;53.238;5.686;2024-01-30T11:45:23;9.30;99.90
56512;DHT22;42408;53.238;5.686;2024-01-30T11:47:49;9.30;99.90
56512;DHT22;42408;53.238;5.686;2024-01-30T11:50:15;9.30;99.90
56512;DHT22;42408;53.238;5.686;2024-01-30T11:52:40;9.30;99.90
56512;DHT22;42408;53.238;5.686;2024-01-30T11:55:07;9.30;99.90
56512;DHT22;42408;53.238;5.686;2024-01-30T11:57:33;9.30;99.90
56512;DHT22;42408;53.238;5.686;2024-01-30T12:00:01;9.20;99.90
56512;DHT22;42408;53.238;5.686;2024-01-30T12:02:33;9.30;99.90
56512;DHT22;42408;53.238;5.686;2024-01-30T12:05:04;9.30;99.90
56512;DHT22;42408;53.238;5.686;2024-01-30T12:07:30;9.30;99.90
56512;DHT22;42408;53.238;5.686;2024-01-30T12:09:56;9.30;99.90
56512;DHT22;42408;53.238;5.686;2024-01-30T12:12:26;9.40;99.90
56512;DHT22;42408;53.238;5.686;2024-01-30T12:14:52;9.40;99.90
56512;DHT22;42408;53.238;5.686;2024-01-30T12:17:32;9.30;99.90
56512;DHT22;42408;53.238;5.686;2024-01-30T12:20:08;9.40;99.90
56512;DHT22;42408;53.238;5.686;2024-01-30T12:22:38;9.30;99.90
56512;DHT22;42408;53.238;5.686;2024-01-30T12:25:11;9.30;99.90
56512;DHT22;42408;53.238;5.686;2024-01-30T12:27:38;9.30;99.90
56512;DHT22;42408;53.238;5.686;2024-01-30T12:30:11;9.30;99.90
56512;DHT22;42408;53.238;5.686;2024-01-30T12:32:41;9.30;99.90
56512;DHT22;42408;53.238;5.686;2024-01-30T12:35:15;9.30;99.90
56512;DHT22;42408;53.238;5.686;2024-01-30T12:37:41;9.30;99.90
56512;DHT22;42408;53.238;5.686;2024-01-30T12:40:08;9.30;99.90
56512;DHT22;42408;53.238;5.686;2024-01-30T12:42:35;9.30;99.90
56512;DHT22;42408;53.238;5.686;2024-01-30T12:45:03;9.30;99.90
56512;DHT22;42408;53.238;5.686;2024-01-30T12:47:29;9.30;99.90
56512;DHT22;42408;53.238;5.686;2024-01-30T12:49:54;9.20;99.90
56512;DHT22;42408;53.238;5.686;2024-01-30T12:52:21;9.20;99.90
56512;DHT22;42408;53.238;5.686;2024-01-30T12:54:50;9.20;99.90
56512;DHT22;42408;53.238;5.686;2024-01-30T12:57:16;9.20;99.90
56512;DHT22;42408;53.238;5.686;2024-01-30T12:59:43;9.20;99.90
56512;DHT22;42408;53.238;5.686;2024-01-30T13:02:09;9.20;99.90
56512;DHT22;42408;53.238;5.686;2024-01-30T13:04:35;9.20;99.90
56512;DHT22;42408;53.238;5.686;2024-01-30T13:07:02;9.10;99.90
56512;DHT22;42408;53.238;5.686;2024-01-30T13:09:29;9.20;99.90
56512;DHT22;42408;53.238;5.686;2024-01-30T13:11:54;9.10;99.90
56512;DHT22;42408;53.238;5.686;2024-01-30T13:14:20;9.10;99.90
56512;DHT22;42408;53.238;5.686;2024-01-30T13:16:45;9.10;99.90
56512;DHT22;42408;53.238;5.686;2024-01-30T13:19:11;9.10;99.90
56512;DHT22;42408;53.238;5.686;2024-01-30T13:21:37;9.10;99.90
56512;DHT22;42408;53.238;5.686;2024-01-30T13:24:03;9.20;99.90
56512;DHT22;42408;53.238;5.686;2024-01-30T13:26:29;9.10;99.90
56512;DHT22;42408;53.238;5.686;2024-01-30T13:28:56;9.20;99.90
56512;DHT22;42408;53.238;5.686;2024-01-30T13:31:22;9.20;99.90
56512;DHT22;42408;53.238;5.686;2024-01-30T13:33:47;9.20;99.90
56512;DHT22;42408;53.238;5.686;2024-01-30T13:36:14;9.20;99.90
56512;DHT22;42408;53.238;5.686;2024-01-30T13:38:40;9.10;99.90
56512;DHT22;42408;53.238;5.686;2024-01-30T13:41:06;9.10;99.90
56512;DHT22;42408;53.238;5.686;2024-01-30T13:43:31;9.10;99.90
56512;DHT22;42408;53.238;5.686;2024-01-30T13:45:57;9.10;99.90
56512;DHT22;42408;53.238;5.686;2024-01-30T13:48:23;9.20;99.90
56512;DHT22;42408;53.238;5.686;2024-01-30T13:50:48;9.10;99.90
56512;DHT22;42408;53.238;5.686;2024-01-30T13:53:14;9.10;99.90
56512;DHT22;42408;53.238;5.686;2024-01-30T13:55:40;9.10;99.90
56512;DHT22;42408;53.238;5.686;2024-01-30T13:58:06;9.00;99.90
56512;DHT22;42408;53.238;5.686;2024-01-30T14:00:33;9.10;99.90
56512;DHT22;42408;53.238;5.686;2024-01-30T14:02:59;9.10;99.90
56512;DHT22;42408;53.238;5.686;2024-01-30T14:05:25;9.10;99.90
56512;DHT22;42408;53.238;5.686;2024-01-30T14:07:53;9.00;99.90
56512;DHT22;42408;53.238;5.686;2024-01-30T14:10:18;9.00;99.90
56512;DHT22;42408;53.238;5.686;2024-01-30T14:12:44;9.00;99.90
56512;DHT22;42408;53.238;5.686;2024-01-30T14:15:10;9.00;99.90
56512;DHT22;42408;53.238;5.686;2024-01-30T14:17:36;8.90;99.90
56512;DHT22;42408;53.238;5.686;2024-01-30T14:20:03;8.90;99.90
56512;DHT22;42408;53.238;5.686;2024-01-30T14:22:33;8.90;99.90
56512;DHT22;42408;53.238;5.686;2024-01-30T14:25:00;8.90;99.90
56512;DHT22;42408;53.238;5.686;2024-01-30T14:27:25;8.90;99.90
56512;DHT22;42408;53.238;5.686;2024-01-30T14:29:51;8.90;99.90
56512;DHT22;42408;53.238;5.686;2024-01-30T14:32:17;8.80;99.90
56512;DHT22;42408;53.238;5.686;2024-01-30T14:34:42;8.90;99.90
56512;DHT22;42408;53.238;5.686;2024-01-30T14:37:08;8.90;99.90
56512;DHT22;42408;53.238;5.686;2024-01-30T14:39:34;8.80;99.90
56512;DHT22;42408;53.238;5.686;2024-01-30T14:42:03;8.90;99.90
56512;DHT22;42408;53.238;5.686;2024-01-30T14:44:29;8.90;99.90
56512;DHT22;42408;53.238;5.686;2024-01-30T14:46:56;8.80;99.90
56512;DHT22;42408;53.238;5.686;2024-01-30T14:49:21;8.70;99.90
56512;DHT22;42408;53.238;5.686;2024-01-30T14:51:47;8.70;99.90
56512;DHT22;42408;53.238;5.686;2024-01-30T14:54:13;8.70;99.90
56512;DHT22;42408;53.238;5.686;2024-01-30T14:56:39;8.70;99.90
56512;DHT22;42408;53.238;5.686;2024-01-30T14:59:04;8.70;99.90
56512;DHT22;42408;53.238;5.686;2024-01-30T15:01:30;8.60;99.90
56512;DHT22;42408;53.238;5.686;2024-01-30T15:03:56;8.60;99.90
56512;DHT22;42408;53.238;5.686;2024-01-30T15:06:21;8.60;99.90
56512;DHT22;42408;53.238;5.686;2024-01-30T15:08:50;8.60;99.90
56512;DHT22;42408;53.238;5.686;2024-01-30T15:11:16;8.60;99.90
56512;DHT22;42408;53.238;5.686;2024-01-30T15:13:41;8.50;99.90
56512;DHT22;42408;53.238;5.686;2024-01-30T15:16:07;8.50;99.90
56512;DHT22;42408;53.238;5.686;2024-01-30T15:18:33;8.40;99.90
56512;DHT22;42408;53.238;5.686;2024-01-30T15:20:58;8.30;99.90
56512;DHT22;42408;53.238;5.686;2024-01-30T15:23:24;8.40;99.90
56512;DHT22;42408;53.238;5.686;2024-01-30T15:25:50;8.30;99.90
56512;DHT22;42408;53.238;5.686;2024-01-30T15:28:15;8.30;99.90
56512;DHT22;42408;53.238;5.686;2024-01-30T15:30:42;8.20;99.90
56512;DHT22;42408;53.238;5.686;2024-01-30T15:33:09;8.20;99.90
56512;DHT22;42408;53.238;5.686;2024-01-30T15:35:35;8.30;99.90
56512;DHT22;42408;53.238;5.686;2024-01-30T15:38:01;8.20;99.90
56512;DHT22;42408;53.238;5.686;2024-01-30T15:40:26;8.30;99.90
56512;DHT22;42408;53.238;5.686;2024-01-30T15:42:52;8.20;99.90
56512;DHT22;42408;53.238;5.686;2024-01-30T15:45:18;8.20;99.90
56512;DHT22;42408;53.238;5.686;2024-01-30T15:47:45;8.20;99.90